sensor_id;sensor_type;location;lat;lon;timestamp;P1;durP1;ratioP1;P2;durP2;ratioP2
80366;SDS011;70058;42.660;23.366;2023-06-10T00:01:58;14.63;;;5.75;;
80366;SDS011;70058;42.660;23.366;2023-06-10T00:04:25;9.45;;;5.22;;
80366;SDS011;70058;42.660;23.366;2023-06-10T00:06:52;10.38;;;5.28;;
80366;SDS011;70058;42.660;23.366;2023-06-10T00:09:18;11.55;;;5.70;;
80366;SDS011;70058;42.660;23.366;2023-06-10T00:11:46;11.50;;;5.45;;
80366;SDS011;70058;42.660;23.366;2023-06-10T00:14:12;12.65;;;6.20;;
80366;SDS011;70058;42.660;23.366;2023-06-10T00:16:38;10.50;;;5.30;;
80366;SDS011;70058;42.660;23.366;2023-06-10T00:19:04;10.50;;;5.45;;
80366;SDS011;70058;42.660;23.366;2023-06-10T00:21:30;9.85;;;5.22;;
80366;SDS011;70058;42.660;23.366;2023-06-10T00:24:05;11.98;;;5.65;;
80366;SDS011;70058;42.660;23.366;2023-06-10T00:26:37;9.98;;;5.65;;
80366;SDS011;70058;42.660;23.366;2023-06-10T00:29:03;9.90;;;5.68;;
80366;SDS011;70058;42.660;23.366;2023-06-10T00:31:28;8.57;;;5.68;;
80366;SDS011;70058;42.660;23.366;2023-06-10T00:33:55;10.77;;;5.43;;
80366;SDS011;70058;42.660;23.366;2023-06-10T00:36:21;11.98;;;5.75;;
80366;SDS011;70058;42.660;23.366;2023-06-10T00:38:46;11.07;;;6.15;;
80366;SDS011;70058;42.660;23.366;2023-06-10T00:41:12;12.15;;;6.10;;
80366;SDS011;70058;42.660;23.366;2023-06-10T00:43:38;9.45;;;5.50;;
80366;SDS011;70058;42.660;23.366;2023-06-10T00:46:04;11.30;;;7.07;;
80366;SDS011;70058;42.660;23.366;2023-06-10T00:48:30;13.85;;;6.03;;
80366;SDS011;70058;42.660;23.366;2023-06-10T00:50:56;10.38;;;5.90;;
80366;SDS011;70058;42.660;23.366;2023-06-10T00:53:22;9.00;;;5.80;;
80366;SDS011;70058;42.660;23.366;2023-06-10T00:55:48;10.00;;;6.40;;
80366;SDS011;70058;42.660;23.366;2023-06-10T00:58:14;11.32;;;6.78;;
80366;SDS011;70058;42.660;23.366;2023-06-10T01:00:40;14.45;;;6.57;;
80366;SDS011;70058;42.660;23.366;2023-06-10T01:03:06;10.30;;;6.30;;
80366;SDS011;70058;42.660;23.366;2023-06-10T01:05:34;15.00;;;7.20;;
80366;SDS011;70058;42.660;23.366;2023-06-10T01:10:49;12.18;;;9.00;;
80366;SDS011;70058;42.660;23.366;2023-06-10T01:13:18;19.70;;;11.05;;
80366;SDS011;70058;42.660;23.366;2023-06-10T01:15:45;21.95;;;14.18;;
80366;SDS011;70058;42.660;23.366;2023-06-10T01:18:11;24.50;;;15.80;;
80366;SDS011;70058;42.660;23.366;2023-06-10T01:20:43;20.42;;;15.27;;
80366;SDS011;70058;42.660;23.366;2023-06-10T01:23:11;22.02;;;12.95;;
80366;SDS011;70058;42.660;23.366;2023-06-10T01:25:41;18.55;;;11.98;;
80366;SDS011;70058;42.660;23.366;2023-06-10T01:30:55;16.98;;;8.98;;
80366;SDS011;70058;42.660;23.366;2023-06-10T01:33:33;12.43;;;8.35;;
80366;SDS011;70058;42.660;23.366;2023-06-10T01:36:03;22.17;;;8.00;;
80366;SDS011;70058;42.660;23.366;2023-06-10T01:38:30;15.40;;;7.55;;
80366;SDS011;70058;42.660;23.366;2023-06-10T01:41:01;13.75;;;8.18;;
80366;SDS011;70058;42.660;23.366;2023-06-10T01:43:32;10.80;;;7.72;;
80366;SDS011;70058;42.660;23.366;2023-06-10T01:45:58;13.32;;;7.82;;
80366;SDS011;70058;42.660;23.366;2023-06-10T01:48:24;13.30;;;7.22;;
80366;SDS011;70058;42.660;23.366;2023-06-10T01:50:50;12.32;;;7.72;;
80366;SDS011;70058;42.660;23.366;2023-06-10T01:53:15;13.85;;;7.65;;
80366;SDS011;70058;42.660;23.366;2023-06-10T01:55:41;11.93;;;7.70;;
80366;SDS011;70058;42.660;23.366;2023-06-10T01:58:06;14.27;;;8.15;;
80366;SDS011;70058;42.660;23.366;2023-06-10T02:00:32;15.00;;;8.15;;
80366;SDS011;70058;42.660;23.366;2023-06-10T02:02:58;12.82;;;8.23;;
80366;SDS011;70058;42.660;23.366;2023-06-10T02:05:24;15.55;;;8.43;;
80366;SDS011;70058;42.660;23.366;2023-06-10T02:07:50;11.20;;;7.63;;
80366;SDS011;70058;42.660;23.366;2023-06-10T02:10:16;11.32;;;7.32;;
80366;SDS011;70058;42.660;23.366;2023-06-10T02:12:41;11.00;;;7.80;;
80366;SDS011;70058;42.660;23.366;2023-06-10T02:15:07;14.27;;;7.18;;
80366;SDS011;70058;42.660;23.366;2023-06-10T02:17:33;14.50;;;7.22;;
80366;SDS011;70058;42.660;23.366;2023-06-10T02:19:58;11.93;;;7.10;;
80366;SDS011;70058;42.660;23.366;2023-06-10T02:22:25;12.00;;;6.95;;
80366;SDS011;70058;42.660;23.366;2023-06-10T02:24:50;11.63;;;7.05;;
80366;SDS011;70058;42.660;23.366;2023-06-10T02:27:17;13.02;;;6.97;;
80366;SDS011;70058;42.660;23.366;2023-06-10T02:29:43;12.27;;;6.68;;
80366;SDS011;70058;42.660;23.366;2023-06-10T02:32:09;11.35;;;6.13;;
80366;SDS011;70058;42.660;23.366;2023-06-10T02:34:35;13.63;;;7.15;;
80366;SDS011;70058;42.660;23.366;2023-06-10T02:37:01;10.93;;;6.22;;
80366;SDS011;70058;42.660;23.366;2023-06-10T02:39:27;10.63;;;6.18;;
80366;SDS011;70058;42.660;23.366;2023-06-10T02:41:53;12.57;;;6.55;;
80366;SDS011;70058;42.660;23.366;2023-06-10T02:44:19;11.25;;;6.80;;
80366;SDS011;70058;42.660;23.366;2023-06-10T02:46:45;13.68;;;6.93;;
80366;SDS011;70058;42.660;23.366;2023-06-10T02:49:11;10.48;;;6.97;;
80366;SDS011;70058;42.660;23.366;2023-06-10T02:51:37;11.23;;;7.05;;
80366;SDS011;70058;42.660;23.366;2023-06-10T02:54:03;40.55;;;31.50;;
80366;SDS011;70058;42.660;23.366;2023-06-10T02:56:29;52.20;;;39.20;;
80366;SDS011;70058;42.660;23.366;2023-06-10T02:58:56;53.63;;;37.72;;
80366;SDS011;70058;42.660;23.366;2023-06-10T03:01:22;35.38;;;27.42;;
80366;SDS011;70058;42.660;23.366;2023-06-10T03:03:48;21.42;;;16.90;;
80366;SDS011;70058;42.660;23.366;2023-06-10T03:06:15;18.50;;;11.95;;
80366;SDS011;70058;42.660;23.366;2023-06-10T03:08:42;15.20;;;11.32;;
80366;SDS011;70058;42.660;23.366;2023-06-10T03:11:08;13.77;;;9.70;;
80366;SDS011;70058;42.660;23.366;2023-06-10T03:13:33;14.95;;;8.20;;
80366;SDS011;70058;42.660;23.366;2023-06-10T03:15:59;13.93;;;8.60;;
80366;SDS011;70058;42.660;23.366;2023-06-10T03:18:25;13.65;;;8.20;;
80366;SDS011;70058;42.660;23.366;2023-06-10T03:20:52;19.30;;;9.63;;
80366;SDS011;70058;42.660;23.366;2023-06-10T03:23:18;18.30;;;9.52;;
80366;SDS011;70058;42.660;23.366;2023-06-10T03:25:44;14.05;;;8.65;;
80366;SDS011;70058;42.660;23.366;2023-06-10T03:28:10;16.40;;;9.07;;
80366;SDS011;70058;42.660;23.366;2023-06-10T03:30:35;12.25;;;8.68;;
80366;SDS011;70058;42.660;23.366;2023-06-10T03:33:01;14.18;;;8.85;;
80366;SDS011;70058;42.660;23.366;2023-06-10T03:35:26;14.98;;;8.95;;
80366;SDS011;70058;42.660;23.366;2023-06-10T03:37:52;12.55;;;9.23;;
80366;SDS011;70058;42.660;23.366;2023-06-10T03:40:18;13.65;;;8.68;;
80366;SDS011;70058;42.660;23.366;2023-06-10T03:42:43;11.38;;;8.18;;
80366;SDS011;70058;42.660;23.366;2023-06-10T03:45:09;18.27;;;8.52;;
80366;SDS011;70058;42.660;23.366;2023-06-10T03:47:36;12.93;;;8.63;;
80366;SDS011;70058;42.660;23.366;2023-06-10T03:50:06;13.63;;;8.23;;
80366;SDS011;70058;42.660;23.366;2023-06-10T03:52:33;12.18;;;6.88;;
80366;SDS011;70058;42.660;23.366;2023-06-10T03:54:59;13.93;;;6.88;;
80366;SDS011;70058;42.660;23.366;2023-06-10T03:57:24;14.13;;;6.95;;
80366;SDS011;70058;42.660;23.366;2023-06-10T03:59:50;12.90;;;6.60;;
80366;SDS011;70058;42.660;23.366;2023-06-10T04:02:16;9.68;;;5.70;;
80366;SDS011;70058;42.660;23.366;2023-06-10T04:04:42;8.50;;;5.78;;
80366;SDS011;70058;42.660;23.366;2023-06-10T04:07:08;13.20;;;6.18;;
80366;SDS011;70058;42.660;23.366;2023-06-10T04:09:35;12.43;;;6.20;;
80366;SDS011;70058;42.660;23.366;2023-06-10T04:12:01;10.38;;;6.13;;
80366;SDS011;70058;42.660;23.366;2023-06-10T04:14:31;11.95;;;6.20;;
80366;SDS011;70058;42.660;23.366;2023-06-10T04:16:56;9.68;;;6.07;;
80366;SDS011;70058;42.660;23.366;2023-06-10T04:19:22;11.05;;;7.03;;
80366;SDS011;70058;42.660;23.366;2023-06-10T04:21:48;12.60;;;7.32;;
80366;SDS011;70058;42.660;23.366;2023-06-10T04:24:13;12.10;;;6.93;;
80366;SDS011;70058;42.660;23.366;2023-06-10T04:26:39;10.68;;;6.80;;
80366;SDS011;70058;42.660;23.366;2023-06-10T04:29:04;16.48;;;7.50;;
80366;SDS011;70058;42.660;23.366;2023-06-10T04:31:30;13.32;;;7.30;;
80366;SDS011;70058;42.660;23.366;2023-06-10T04:33:59;12.65;;;6.97;;
80366;SDS011;70058;42.660;23.366;2023-06-10T04:36:25;12.88;;;7.55;;
80366;SDS011;70058;42.660;23.366;2023-06-10T04:38:51;15.45;;;8.07;;
80366;SDS011;70058;42.660;23.366;2023-06-10T04:41:17;14.45;;;7.70;;
80366;SDS011;70058;42.660;23.366;2023-06-10T04:43:43;14.00;;;8.07;;
80366;SDS011;70058;42.660;23.366;2023-06-10T04:46:08;12.73;;;8.00;;
80366;SDS011;70058;42.660;23.366;2023-06-10T04:48:35;13.10;;;7.80;;
80366;SDS011;70058;42.660;23.366;2023-06-10T04:51:02;16.95;;;8.10;;
80366;SDS011;70058;42.660;23.366;2023-06-10T04:53:30;12.55;;;7.78;;
80366;SDS011;70058;42.660;23.366;2023-06-10T04:55:56;11.38;;;7.10;;
80366;SDS011;70058;42.660;23.366;2023-06-10T04:58:23;10.85;;;6.43;;
80366;SDS011;70058;42.660;23.366;2023-06-10T05:00:48;10.95;;;6.88;;
80366;SDS011;70058;42.660;23.366;2023-06-10T05:03:14;12.80;;;6.90;;
80366;SDS011;70058;42.660;23.366;2023-06-10T05:05:40;12.52;;;7.40;;
80366;SDS011;70058;42.660;23.366;2023-06-10T05:08:06;11.25;;;6.90;;
80366;SDS011;70058;42.660;23.366;2023-06-10T05:10:31;9.95;;;6.88;;
80366;SDS011;70058;42.660;23.366;2023-06-10T05:12:59;10.82;;;7.00;;
80366;SDS011;70058;42.660;23.366;2023-06-10T05:15:24;11.55;;;6.25;;
80366;SDS011;70058;42.660;23.366;2023-06-10T05:17:50;9.02;;;5.68;;
80366;SDS011;70058;42.660;23.366;2023-06-10T05:20:16;14.25;;;5.80;;
80366;SDS011;70058;42.660;23.366;2023-06-10T05:22:43;11.57;;;5.53;;
80366;SDS011;70058;42.660;23.366;2023-06-10T05:25:09;12.75;;;6.20;;
80366;SDS011;70058;42.660;23.366;2023-06-10T05:27:35;9.50;;;5.30;;
80366;SDS011;70058;42.660;23.366;2023-06-10T05:30:01;13.77;;;5.40;;
80366;SDS011;70058;42.660;23.366;2023-06-10T05:32:29;10.38;;;6.25;;
80366;SDS011;70058;42.660;23.366;2023-06-10T05:34:55;16.08;;;6.65;;
80366;SDS011;70058;42.660;23.366;2023-06-10T05:37:20;11.50;;;6.40;;
80366;SDS011;70058;42.660;23.366;2023-06-10T05:39:46;11.70;;;6.50;;
80366;SDS011;70058;42.660;23.366;2023-06-10T05:42:11;19.42;;;7.32;;
80366;SDS011;70058;42.660;23.366;2023-06-10T05:44:37;16.73;;;6.93;;
80366;SDS011;70058;42.660;23.366;2023-06-10T05:47:03;13.05;;;6.30;;
80366;SDS011;70058;42.660;23.366;2023-06-10T05:49:29;14.73;;;6.03;;
80366;SDS011;70058;42.660;23.366;2023-06-10T05:51:55;8.25;;;5.35;;
80366;SDS011;70058;42.660;23.366;2023-06-10T05:54:22;10.30;;;5.88;;
80366;SDS011;70058;42.660;23.366;2023-06-10T05:56:48;8.57;;;5.18;;
80366;SDS011;70058;42.660;23.366;2023-06-10T05:59:13;11.35;;;7.05;;
80366;SDS011;70058;42.660;23.366;2023-06-10T06:01:39;12.88;;;7.65;;
80366;SDS011;70058;42.660;23.366;2023-06-10T06:04:05;13.45;;;7.30;;
80366;SDS011;70058;42.660;23.366;2023-06-10T06:06:30;16.02;;;7.65;;
80366;SDS011;70058;42.660;23.366;2023-06-10T06:08:56;11.63;;;7.07;;
80366;SDS011;70058;42.660;23.366;2023-06-10T06:11:21;10.88;;;6.93;;
80366;SDS011;70058;42.660;23.366;2023-06-10T06:13:47;13.10;;;7.10;;
80366;SDS011;70058;42.660;23.366;2023-06-10T06:16:13;11.07;;;7.40;;
80366;SDS011;70058;42.660;23.366;2023-06-10T06:18:39;10.30;;;6.75;;
80366;SDS011;70058;42.660;23.366;2023-06-10T06:21:04;13.30;;;6.85;;
80366;SDS011;70058;42.660;23.366;2023-06-10T06:23:30;14.15;;;7.43;;
80366;SDS011;70058;42.660;23.366;2023-06-10T06:25:56;13.65;;;6.68;;
80366;SDS011;70058;42.660;23.366;2023-06-10T06:28:21;10.23;;;6.88;;
80366;SDS011;70058;42.660;23.366;2023-06-10T06:30:47;11.73;;;6.63;;
80366;SDS011;70058;42.660;23.366;2023-06-10T06:33:13;14.02;;;6.28;;
80366;SDS011;70058;42.660;23.366;2023-06-10T06:35:39;12.70;;;6.82;;
80366;SDS011;70058;42.660;23.366;2023-06-10T06:38:05;12.07;;;6.20;;
80366;SDS011;70058;42.660;23.366;2023-06-10T06:40:30;10.88;;;5.85;;
80366;SDS011;70058;42.660;23.366;2023-06-10T06:42:56;9.38;;;4.85;;
80366;SDS011;70058;42.660;23.366;2023-06-10T06:45:22;11.05;;;5.40;;
80366;SDS011;70058;42.660;23.366;2023-06-10T06:47:47;7.85;;;4.78;;
80366;SDS011;70058;42.660;23.366;2023-06-10T06:50:13;9.32;;;5.18;;
80366;SDS011;70058;42.660;23.366;2023-06-10T06:52:39;12.02;;;5.65;;
80366;SDS011;70058;42.660;23.366;2023-06-10T06:55:05;12.73;;;6.70;;
80366;SDS011;70058;42.660;23.366;2023-06-10T06:57:31;12.45;;;5.80;;
80366;SDS011;70058;42.660;23.366;2023-06-10T06:59:56;11.32;;;5.82;;
80366;SDS011;70058;42.660;23.366;2023-06-10T07:02:22;9.48;;;5.90;;
80366;SDS011;70058;42.660;23.366;2023-06-10T07:04:48;12.23;;;4.90;;
80366;SDS011;70058;42.660;23.366;2023-06-10T07:07:14;8.25;;;5.03;;
80366;SDS011;70058;42.660;23.366;2023-06-10T07:09:40;8.82;;;5.10;;
80366;SDS011;70058;42.660;23.366;2023-06-10T07:12:06;10.55;;;6.00;;
80366;SDS011;70058;42.660;23.366;2023-06-10T07:14:32;8.27;;;5.00;;
80366;SDS011;70058;42.660;23.366;2023-06-10T07:16:58;9.60;;;4.63;;
80366;SDS011;70058;42.660;23.366;2023-06-10T07:19:24;8.77;;;4.97;;
80366;SDS011;70058;42.660;23.366;2023-06-10T07:21:49;12.18;;;5.50;;
80366;SDS011;70058;42.660;23.366;2023-06-10T07:24:15;9.65;;;5.30;;
80366;SDS011;70058;42.660;23.366;2023-06-10T07:26:41;8.75;;;4.72;;
80366;SDS011;70058;42.660;23.366;2023-06-10T07:29:06;7.47;;;4.50;;
80366;SDS011;70058;42.660;23.366;2023-06-10T07:31:32;16.38;;;7.78;;
80366;SDS011;70058;42.660;23.366;2023-06-10T07:33:58;8.18;;;3.53;;
80366;SDS011;70058;42.660;23.366;2023-06-10T07:36:23;6.80;;;3.55;;
80366;SDS011;70058;42.660;23.366;2023-06-10T07:38:52;7.80;;;3.42;;
80366;SDS011;70058;42.660;23.366;2023-06-10T07:41:18;6.75;;;3.53;;
80366;SDS011;70058;42.660;23.366;2023-06-10T07:43:44;7.07;;;3.55;;
80366;SDS011;70058;42.660;23.366;2023-06-10T07:46:10;6.97;;;3.40;;
80366;SDS011;70058;42.660;23.366;2023-06-10T07:48:35;7.28;;;3.13;;
80366;SDS011;70058;42.660;23.366;2023-06-10T07:51:01;8.90;;;3.38;;
80366;SDS011;70058;42.660;23.366;2023-06-10T07:53:28;7.32;;;3.70;;
80366;SDS011;70058;42.660;23.366;2023-06-10T07:55:54;6.97;;;3.42;;
80366;SDS011;70058;42.660;23.366;2023-06-10T07:58:20;8.02;;;3.70;;
80366;SDS011;70058;42.660;23.366;2023-06-10T08:00:47;8.10;;;4.13;;
80366;SDS011;70058;42.660;23.366;2023-06-10T08:03:12;7.82;;;3.88;;
80366;SDS011;70058;42.660;23.366;2023-06-10T08:05:39;11.13;;;4.03;;
80366;SDS011;70058;42.660;23.366;2023-06-10T08:08:05;9.18;;;3.95;;
80366;SDS011;70058;42.660;23.366;2023-06-10T08:10:30;10.50;;;4.30;;
80366;SDS011;70058;42.660;23.366;2023-06-10T08:12:56;7.80;;;3.42;;
80366;SDS011;70058;42.660;23.366;2023-06-10T08:15:22;9.77;;;3.10;;
80366;SDS011;70058;42.660;23.366;2023-06-10T08:17:48;6.15;;;2.90;;
80366;SDS011;70058;42.660;23.366;2023-06-10T08:20:13;6.50;;;3.22;;
80366;SDS011;70058;42.660;23.366;2023-06-10T08:22:39;5.90;;;2.88;;
80366;SDS011;70058;42.660;23.366;2023-06-10T08:25:05;5.38;;;2.80;;
80366;SDS011;70058;42.660;23.366;2023-06-10T08:27:31;5.18;;;2.70;;
80366;SDS011;70058;42.660;23.366;2023-06-10T08:29:56;6.22;;;2.38;;
80366;SDS011;70058;42.660;23.366;2023-06-10T08:32:24;6.78;;;2.40;;
80366;SDS011;70058;42.660;23.366;2023-06-10T08:34:50;9.02;;;2.67;;
80366;SDS011;70058;42.660;23.366;2023-06-10T08:37:15;5.35;;;2.45;;
80366;SDS011;70058;42.660;23.366;2023-06-10T08:39:41;6.70;;;2.20;;
80366;SDS011;70058;42.660;23.366;2023-06-10T08:44:45;5.18;;;2.20;;
80366;SDS011;70058;42.660;23.366;2023-06-10T08:47:15;4.53;;;2.10;;
80366;SDS011;70058;42.660;23.366;2023-06-10T08:49:45;5.18;;;2.20;;
80366;SDS011;70058;42.660;23.366;2023-06-10T08:52:15;4.60;;;2.15;;
80366;SDS011;70058;42.660;23.366;2023-06-10T08:57:16;6.70;;;2.28;;
80366;SDS011;70058;42.660;23.366;2023-06-10T08:59:45;5.18;;;2.10;;
80366;SDS011;70058;42.660;23.366;2023-06-10T09:02:11;7.20;;;2.40;;
80366;SDS011;70058;42.660;23.366;2023-06-10T09:04:41;6.00;;;2.22;;
80366;SDS011;70058;42.660;23.366;2023-06-10T09:07:09;5.93;;;2.22;;
80366;SDS011;70058;42.660;23.366;2023-06-10T09:09:35;5.00;;;2.20;;
80366;SDS011;70058;42.660;23.366;2023-06-10T09:12:02;5.93;;;2.35;;
80366;SDS011;70058;42.660;23.366;2023-06-10T09:14:28;5.95;;;2.42;;
80366;SDS011;70058;42.660;23.366;2023-06-10T09:16:54;5.38;;;2.50;;
80366;SDS011;70058;42.660;23.366;2023-06-10T09:19:23;5.43;;;2.80;;
80366;SDS011;70058;42.660;23.366;2023-06-10T09:21:51;6.30;;;2.63;;
80366;SDS011;70058;42.660;23.366;2023-06-10T09:24:17;4.72;;;2.35;;
80366;SDS011;70058;42.660;23.366;2023-06-10T09:26:43;7.03;;;3.17;;
80366;SDS011;70058;42.660;23.366;2023-06-10T09:29:10;7.55;;;3.67;;
80366;SDS011;70058;42.660;23.366;2023-06-10T09:31:40;6.72;;;3.47;;
80366;SDS011;70058;42.660;23.366;2023-06-10T09:34:06;5.30;;;3.10;;
80366;SDS011;70058;42.660;23.366;2023-06-10T09:36:37;5.05;;;2.78;;
80366;SDS011;70058;42.660;23.366;2023-06-10T09:39:03;6.95;;;3.00;;
80366;SDS011;70058;42.660;23.366;2023-06-10T09:41:33;6.95;;;2.90;;
80366;SDS011;70058;42.660;23.366;2023-06-10T09:44:00;6.05;;;2.42;;
80366;SDS011;70058;42.660;23.366;2023-06-10T09:46:30;5.30;;;2.60;;
80366;SDS011;70058;42.660;23.366;2023-06-10T09:48:58;5.32;;;2.63;;
80366;SDS011;70058;42.660;23.366;2023-06-10T09:51:23;6.22;;;2.50;;
80366;SDS011;70058;42.660;23.366;2023-06-10T09:53:50;6.20;;;2.40;;
80366;SDS011;70058;42.660;23.366;2023-06-10T09:56:17;5.90;;;2.67;;
80366;SDS011;70058;42.660;23.366;2023-06-10T09:58:44;5.60;;;2.10;;
80366;SDS011;70058;42.660;23.366;2023-06-10T10:01:12;6.28;;;2.47;;
80366;SDS011;70058;42.660;23.366;2023-06-10T10:03:45;5.72;;;2.08;;
80366;SDS011;70058;42.660;23.366;2023-06-10T10:06:13;4.70;;;2.15;;
80366;SDS011;70058;42.660;23.366;2023-06-10T10:08:40;3.63;;;1.60;;
80366;SDS011;70058;42.660;23.366;2023-06-10T10:11:06;5.35;;;1.80;;
80366;SDS011;70058;42.660;23.366;2023-06-10T10:13:35;7.78;;;1.85;;
80366;SDS011;70058;42.660;23.366;2023-06-10T10:16:04;5.10;;;2.72;;
80366;SDS011;70058;42.660;23.366;2023-06-10T10:18:37;6.57;;;2.17;;
80366;SDS011;70058;42.660;23.366;2023-06-10T10:21:06;6.80;;;2.45;;
80366;SDS011;70058;42.660;23.366;2023-06-10T10:23:43;4.00;;;2.17;;
80366;SDS011;70058;42.660;23.366;2023-06-10T10:26:12;5.03;;;1.88;;
80366;SDS011;70058;42.660;23.366;2023-06-10T10:28:41;5.15;;;2.28;;
80366;SDS011;70058;42.660;23.366;2023-06-10T10:31:15;6.43;;;2.38;;
80366;SDS011;70058;42.660;23.366;2023-06-10T10:33:59;6.97;;;2.70;;
80366;SDS011;70058;42.660;23.366;2023-06-10T10:36:27;8.23;;;2.43;;
80366;SDS011;70058;42.660;23.366;2023-06-10T10:38:53;5.57;;;2.45;;
80366;SDS011;70058;42.660;23.366;2023-06-10T10:41:19;6.93;;;2.90;;
80366;SDS011;70058;42.660;23.366;2023-06-10T10:43:46;4.32;;;2.25;;
80366;SDS011;70058;42.660;23.366;2023-06-10T10:46:14;4.75;;;2.20;;
80366;SDS011;70058;42.660;23.366;2023-06-10T10:48:42;5.88;;;2.65;;
80366;SDS011;70058;42.660;23.366;2023-06-10T10:51:08;5.55;;;2.60;;
80366;SDS011;70058;42.660;23.366;2023-06-10T10:53:36;4.70;;;2.45;;
80366;SDS011;70058;42.660;23.366;2023-06-10T10:56:07;5.25;;;2.47;;
80366;SDS011;70058;42.660;23.366;2023-06-10T10:58:37;5.55;;;2.80;;
80366;SDS011;70058;42.660;23.366;2023-06-10T11:01:13;5.88;;;2.33;;
80366;SDS011;70058;42.660;23.366;2023-06-10T11:03:45;7.30;;;2.70;;
80366;SDS011;70058;42.660;23.366;2023-06-10T11:06:15;6.25;;;2.85;;
80366;SDS011;70058;42.660;23.366;2023-06-10T11:16:53;7.13;;;2.63;;
80366;SDS011;70058;42.660;23.366;2023-06-10T11:19:35;9.23;;;2.78;;
80366;SDS011;70058;42.660;23.366;2023-06-10T11:22:05;6.35;;;3.00;;
80366;SDS011;70058;42.660;23.366;2023-06-10T11:24:31;6.18;;;3.50;;
80366;SDS011;70058;42.660;23.366;2023-06-10T11:27:17;10.98;;;4.00;;
80366;SDS011;70058;42.660;23.366;2023-06-10T11:32:32;7.32;;;4.07;;
80366;SDS011;70058;42.660;23.366;2023-06-10T11:34:59;8.48;;;3.65;;
80366;SDS011;70058;42.660;23.366;2023-06-10T11:37:28;8.77;;;4.32;;
80366;SDS011;70058;42.660;23.366;2023-06-10T11:39:54;5.78;;;2.83;;
80366;SDS011;70058;42.660;23.366;2023-06-10T11:42:21;6.55;;;3.00;;
80366;SDS011;70058;42.660;23.366;2023-06-10T11:44:51;5.47;;;2.85;;
80366;SDS011;70058;42.660;23.366;2023-06-10T11:47:18;5.85;;;3.15;;
80366;SDS011;70058;42.660;23.366;2023-06-10T11:49:45;7.53;;;3.85;;
80366;SDS011;70058;42.660;23.366;2023-06-10T11:52:25;7.97;;;3.60;;
80366;SDS011;70058;42.660;23.366;2023-06-10T11:54:53;6.07;;;3.10;;
80366;SDS011;70058;42.660;23.366;2023-06-10T11:57:20;5.90;;;3.00;;
80366;SDS011;70058;42.660;23.366;2023-06-10T11:59:45;5.45;;;2.78;;
80366;SDS011;70058;42.660;23.366;2023-06-10T12:02:15;5.43;;;2.50;;
80366;SDS011;70058;42.660;23.366;2023-06-10T12:04:41;5.63;;;2.75;;
80366;SDS011;70058;42.660;23.366;2023-06-10T12:07:07;5.53;;;2.70;;
80366;SDS011;70058;42.660;23.366;2023-06-10T12:09:33;5.70;;;3.00;;
80366;SDS011;70058;42.660;23.366;2023-06-10T12:11:59;5.18;;;2.50;;
80366;SDS011;70058;42.660;23.366;2023-06-10T12:19:57;6.43;;;3.00;;
80366;SDS011;70058;42.660;23.366;2023-06-10T12:22:23;5.90;;;2.97;;
80366;SDS011;70058;42.660;23.366;2023-06-10T12:24:59;5.85;;;2.88;;
80366;SDS011;70058;42.660;23.366;2023-06-10T12:27:26;8.57;;;2.72;;
80366;SDS011;70058;42.660;23.366;2023-06-10T12:29:55;9.18;;;3.08;;
80366;SDS011;70058;42.660;23.366;2023-06-10T12:32:46;5.97;;;3.10;;
80366;SDS011;70058;42.660;23.366;2023-06-10T12:35:12;5.93;;;2.75;;
80366;SDS011;70058;42.660;23.366;2023-06-10T12:37:42;7.32;;;2.90;;
80366;SDS011;70058;42.660;23.366;2023-06-10T12:40:25;7.22;;;2.92;;
80366;SDS011;70058;42.660;23.366;2023-06-10T12:42:56;7.45;;;3.08;;
80366;SDS011;70058;42.660;23.366;2023-06-10T12:45:26;6.03;;;2.70;;
80366;SDS011;70058;42.660;23.366;2023-06-10T12:50:32;5.80;;;3.05;;
80366;SDS011;70058;42.660;23.366;2023-06-10T12:52:58;5.80;;;3.00;;
80366;SDS011;70058;42.660;23.366;2023-06-10T12:55:24;8.48;;;2.90;;
80366;SDS011;70058;42.660;23.366;2023-06-10T12:57:50;7.00;;;2.83;;
80366;SDS011;70058;42.660;23.366;2023-06-10T13:00:16;6.10;;;3.13;;
80366;SDS011;70058;42.660;23.366;2023-06-10T13:02:45;7.18;;;2.92;;
80366;SDS011;70058;42.660;23.366;2023-06-10T13:05:10;5.78;;;2.80;;
80366;SDS011;70058;42.660;23.366;2023-06-10T13:07:36;5.20;;;2.67;;
80366;SDS011;70058;42.660;23.366;2023-06-10T13:10:03;4.95;;;2.65;;
80366;SDS011;70058;42.660;23.366;2023-06-10T13:12:28;5.30;;;2.72;;
80366;SDS011;70058;42.660;23.366;2023-06-10T13:14:55;6.10;;;2.70;;
80366;SDS011;70058;42.660;23.366;2023-06-10T13:17:22;9.80;;;3.42;;
80366;SDS011;70058;42.660;23.366;2023-06-10T13:19:47;10.30;;;3.75;;
80366;SDS011;70058;42.660;23.366;2023-06-10T13:22:13;12.13;;;4.45;;
80366;SDS011;70058;42.660;23.366;2023-06-10T13:24:39;9.48;;;3.45;;
80366;SDS011;70058;42.660;23.366;2023-06-10T13:27:06;13.57;;;4.07;;
80366;SDS011;70058;42.660;23.366;2023-06-10T13:29:32;7.43;;;4.20;;
80366;SDS011;70058;42.660;23.366;2023-06-10T13:31:57;8.45;;;3.58;;
80366;SDS011;70058;42.660;23.366;2023-06-10T13:34:24;7.95;;;3.90;;
80366;SDS011;70058;42.660;23.366;2023-06-10T13:36:49;9.18;;;3.60;;
80366;SDS011;70058;42.660;23.366;2023-06-10T13:39:15;9.77;;;4.50;;
80366;SDS011;70058;42.660;23.366;2023-06-10T13:41:41;9.13;;;4.10;;
80366;SDS011;70058;42.660;23.366;2023-06-10T13:44:07;7.60;;;3.92;;
80366;SDS011;70058;42.660;23.366;2023-06-10T13:46:32;8.60;;;3.95;;
80366;SDS011;70058;42.660;23.366;2023-06-10T13:48:58;16.08;;;9.10;;
80366;SDS011;70058;42.660;23.366;2023-06-10T13:51:24;12.85;;;4.78;;
80366;SDS011;70058;42.660;23.366;2023-06-10T13:53:50;16.02;;;4.88;;
80366;SDS011;70058;42.660;23.366;2023-06-10T13:56:17;9.70;;;5.32;;
80366;SDS011;70058;42.660;23.366;2023-06-10T13:58:43;11.57;;;6.70;;
80366;SDS011;70058;42.660;23.366;2023-06-10T14:01:09;10.95;;;4.28;;
80366;SDS011;70058;42.660;23.366;2023-06-10T14:03:35;6.97;;;3.90;;
80366;SDS011;70058;42.660;23.366;2023-06-10T14:06:00;7.65;;;3.83;;
80366;SDS011;70058;42.660;23.366;2023-06-10T14:08:27;7.32;;;3.72;;
80366;SDS011;70058;42.660;23.366;2023-06-10T14:10:52;6.75;;;3.55;;
80366;SDS011;70058;42.660;23.366;2023-06-10T14:13:18;7.72;;;4.28;;
80366;SDS011;70058;42.660;23.366;2023-06-10T14:15:44;7.88;;;3.83;;
80366;SDS011;70058;42.660;23.366;2023-06-10T14:18:10;9.82;;;4.38;;
80366;SDS011;70058;42.660;23.366;2023-06-10T14:20:36;8.13;;;3.83;;
80366;SDS011;70058;42.660;23.366;2023-06-10T14:23:02;8.55;;;3.78;;
80366;SDS011;70058;42.660;23.366;2023-06-10T14:25:27;12.52;;;5.05;;
80366;SDS011;70058;42.660;23.366;2023-06-10T14:27:53;10.13;;;4.72;;
80366;SDS011;70058;42.660;23.366;2023-06-10T14:30:19;14.63;;;4.93;;
80366;SDS011;70058;42.660;23.366;2023-06-10T14:32:44;8.70;;;4.20;;
80366;SDS011;70058;42.660;23.366;2023-06-10T14:35:10;7.60;;;4.18;;
80366;SDS011;70058;42.660;23.366;2023-06-10T14:37:36;7.28;;;4.28;;
80366;SDS011;70058;42.660;23.366;2023-06-10T14:40:02;8.18;;;3.88;;
80366;SDS011;70058;42.660;23.366;2023-06-10T14:42:29;8.45;;;3.50;;
80366;SDS011;70058;42.660;23.366;2023-06-10T14:44:57;7.22;;;4.15;;
80366;SDS011;70058;42.660;23.366;2023-06-10T14:47:22;7.00;;;3.75;;
80366;SDS011;70058;42.660;23.366;2023-06-10T14:49:49;8.57;;;4.72;;
80366;SDS011;70058;42.660;23.366;2023-06-10T14:52:15;9.13;;;3.97;;
80366;SDS011;70058;42.660;23.366;2023-06-10T14:54:41;9.35;;;3.90;;
80366;SDS011;70058;42.660;23.366;2023-06-10T14:57:06;7.50;;;3.75;;